createdAt,value
2022-07-25T00:01:12.357Z,4.30
2022-07-25T00:03:39.281Z,4.30
2022-07-25T00:06:06.957Z,4.37
2022-07-25T00:08:40.151Z,3.73
2022-07-25T00:11:06.704Z,4.20
2022-07-25T00:13:33.361Z,3.90
2022-07-25T00:15:59.957Z,4.43
2022-07-25T00:18:26.634Z,4.50
2022-07-25T00:20:53.322Z,4.33
2022-07-25T00:23:20.094Z,4.13
2022-07-25T00:25:46.747Z,4.60
2022-07-25T00:28:13.476Z,4.10
2022-07-25T00:30:40.289Z,4.47
2022-07-25T00:33:06.990Z,4.50
2022-07-25T00:35:33.630Z,3.97
2022-07-25T00:38:00.158Z,3.90
2022-07-25T00:40:26.946Z,4.13
2022-07-25T00:42:53.613Z,4.13
2022-07-25T00:45:20.233Z,3.87
2022-07-25T00:47:46.793Z,4.53
2022-07-25T00:50:13.340Z,4.33
2022-07-25T00:52:39.976Z,4.40
2022-07-25T00:55:07.716Z,3.90
2022-07-25T00:57:34.377Z,4.10
2022-07-25T01:00:00.982Z,4.00
2022-07-25T01:02:27.713Z,3.90
2022-07-25T01:04:54.958Z,3.93
2022-07-25T01:07:21.784Z,4.70
2022-07-25T01:09:48.839Z,4.20
2022-07-25T01:12:15.548Z,4.40
2022-07-25T01:14:42.136Z,4.33
2022-07-25T01:17:08.876Z,4.70
2022-07-25T01:19:35.518Z,4.97
2022-07-25T01:22:02.060Z,4.13
2022-07-25T01:24:29.155Z,4.23
2022-07-25T01:26:55.796Z,4.70
2022-07-25T01:29:22.458Z,4.50
2022-07-25T01:31:49.050Z,4.43
2022-07-25T01:34:15.659Z,4.20
2022-07-25T01:36:42.572Z,4.33
2022-07-25T01:39:09.208Z,4.40
2022-07-25T01:41:35.964Z,4.20
2022-07-25T01:44:02.749Z,4.60
2022-07-25T01:46:29.664Z,4.47
2022-07-25T01:48:56.475Z,4.37
2022-07-25T01:51:23.082Z,4.50
2022-07-25T01:53:53.219Z,4.27
2022-07-25T01:56:22.402Z,4.70
2022-07-25T01:58:49.210Z,4.20
2022-07-25T02:01:15.857Z,4.60
2022-07-25T02:03:42.448Z,4.60
2022-07-25T02:06:09.027Z,4.83
2022-07-25T02:08:35.615Z,4.80
2022-07-25T02:11:02.663Z,4.30
2022-07-25T02:13:29.322Z,4.50
2022-07-25T02:15:55.889Z,4.90
2022-07-25T02:18:22.459Z,4.97
2022-07-25T02:20:49.104Z,5.10
2022-07-25T02:23:15.669Z,4.67
2022-07-25T02:25:42.296Z,4.90
2022-07-25T02:28:10.672Z,4.97
2022-07-25T02:30:37.628Z,4.70
2022-07-25T02:33:04.331Z,5.07
2022-07-25T02:35:30.955Z,4.50
2022-07-25T02:37:57.726Z,4.80
2022-07-25T02:40:24.285Z,4.80
2022-07-25T02:42:50.851Z,4.63
2022-07-25T02:45:17.950Z,4.50
2022-07-25T02:47:44.745Z,5.00
2022-07-25T02:50:14.808Z,4.83
2022-07-25T02:52:42.342Z,4.87
2022-07-25T02:55:10.040Z,4.67
2022-07-25T02:57:36.656Z,5.17
2022-07-25T03:00:05.065Z,4.67
2022-07-25T03:02:31.606Z,4.67
2022-07-25T03:04:58.205Z,4.93
2022-07-25T03:07:24.802Z,5.13
2022-07-25T03:09:51.477Z,5.00
2022-07-25T03:12:18.083Z,4.60
2022-07-25T03:14:44.663Z,4.80
2022-07-25T03:17:11.269Z,4.53
2022-07-25T03:19:37.876Z,4.80
2022-07-25T03:22:04.453Z,5.10
2022-07-25T03:24:31.475Z,5.40
2022-07-25T03:26:58.120Z,4.73
2022-07-25T03:29:24.764Z,5.20
2022-07-25T03:31:51.432Z,5.03
2022-07-25T03:34:18.123Z,5.30
2022-07-25T03:36:44.696Z,5.47
2022-07-25T03:39:11.297Z,4.83
2022-07-25T03:41:37.851Z,5.10
2022-07-25T03:44:04.872Z,5.17
2022-07-25T03:46:31.659Z,4.97
2022-07-25T03:48:58.345Z,5.37
2022-07-25T03:51:24.991Z,5.17
2022-07-25T03:54:03.847Z,6.00
2022-07-25T03:56:40.328Z,5.30
2022-07-25T03:59:13.470Z,5.50
2022-07-25T04:01:40.704Z,5.40
2022-07-25T04:04:07.963Z,5.43
2022-07-25T04:06:34.903Z,5.30
2022-07-25T04:09:02.107Z,5.33
2022-07-25T04:11:30.772Z,5.10
2022-07-25T04:13:58.317Z,5.17
2022-07-25T04:16:25.365Z,5.10
2022-07-25T04:18:55.446Z,5.10
2022-07-25T04:21:23.672Z,5.00
2022-07-25T04:23:51.004Z,4.87
2022-07-25T04:26:18.148Z,5.00
2022-07-25T04:28:44.741Z,5.40
2022-07-25T04:31:11.457Z,5.10
2022-07-25T04:33:38.730Z,5.10
2022-07-25T04:36:06.396Z,5.07
2022-07-25T04:38:33.597Z,5.10
2022-07-25T04:41:00.308Z,5.40
2022-07-25T04:43:26.899Z,5.03
2022-07-25T04:45:53.909Z,4.67
2022-07-25T04:48:20.523Z,5.73
2022-07-25T04:50:47.150Z,5.67
2022-07-25T04:53:13.749Z,5.07
2022-07-25T04:55:40.754Z,5.00
2022-07-25T04:58:07.326Z,5.63
2022-07-25T05:00:34.104Z,5.27
2022-07-25T05:03:00.754Z,5.37
2022-07-25T05:05:27.469Z,5.07
2022-07-25T05:07:58.870Z,4.97
2022-07-25T05:10:26.906Z,5.20
2022-07-25T05:12:54.192Z,5.17
2022-07-25T05:15:21.207Z,5.47
2022-07-25T05:17:48.332Z,5.43
2022-07-25T05:20:14.932Z,5.60
2022-07-25T05:22:42.406Z,5.40
2022-07-25T05:25:12.281Z,4.97
2022-07-25T05:27:39.770Z,5.93
2022-07-25T05:30:08.316Z,5.70
2022-07-25T05:32:34.996Z,5.27
2022-07-25T05:35:01.583Z,5.50
2022-07-25T05:37:28.170Z,5.10
2022-07-25T05:39:54.800Z,5.70
2022-07-25T05:42:21.447Z,5.03
2022-07-25T05:44:48.286Z,5.43
2022-07-25T05:47:14.923Z,5.27
2022-07-25T05:49:41.510Z,5.77
2022-07-25T05:52:12.564Z,5.20
2022-07-25T05:54:39.946Z,5.53
2022-07-25T05:57:06.466Z,5.30
2022-07-25T05:59:33.112Z,5.70
2022-07-25T06:02:01.909Z,5.43
2022-07-25T06:04:28.900Z,5.80
2022-07-25T06:06:55.735Z,5.63
2022-07-25T06:09:23.171Z,5.40
2022-07-25T06:11:59.777Z,5.37
2022-07-25T06:14:27.398Z,5.57
2022-07-25T06:16:55.136Z,5.37
2022-07-25T06:19:21.920Z,5.57
2022-07-25T06:21:48.540Z,5.67
2022-07-25T06:24:15.261Z,4.93
2022-07-25T06:26:41.886Z,5.60
2022-07-25T06:29:08.591Z,5.95
2022-07-25T06:31:35.261Z,5.35
2022-07-25T06:34:01.854Z,6.18
2022-07-25T06:36:32.567Z,5.90
2022-07-25T06:39:00.018Z,5.70
2022-07-25T06:41:26.918Z,6.05
2022-07-25T06:43:53.480Z,5.63
2022-07-25T06:46:20.386Z,5.65
2022-07-25T06:48:47.026Z,6.07
2022-07-25T06:51:13.740Z,5.95
2022-07-25T06:53:40.366Z,5.82
2022-07-25T06:56:07.143Z,5.93
2022-07-25T06:58:33.980Z,5.78
2022-07-25T07:01:01.382Z,6.10
2022-07-25T07:03:28.361Z,5.85
2022-07-25T07:05:55.365Z,5.85
2022-07-25T07:08:22.163Z,6.10
2022-07-25T07:10:48.749Z,6.13
2022-07-25T07:13:23.964Z,5.93
2022-07-25T07:15:51.692Z,6.03
2022-07-25T07:18:19.798Z,6.43
2022-07-25T07:20:47.280Z,6.20
2022-07-25T07:23:16.575Z,6.60
2022-07-25T07:25:45.743Z,6.85
2022-07-25T07:28:12.934Z,6.35
2022-07-25T07:31:13.360Z,6.78
2022-07-25T07:33:26.162Z,6.63
2022-07-25T07:35:55.863Z,6.47
2022-07-25T07:38:24.138Z,6.82
2022-07-25T07:40:50.687Z,6.32
2022-07-25T07:43:17.267Z,7.32
2022-07-25T07:45:43.954Z,6.75
2022-07-25T07:48:10.733Z,7.10
2022-07-25T07:50:37.789Z,7.03
2022-07-25T07:53:04.598Z,6.43
2022-07-25T07:55:48.507Z,5.95
2022-07-25T07:58:18.822Z,6.90
2022-07-25T08:00:47.655Z,7.03
2022-07-25T08:03:18.477Z,7.25
2022-07-25T08:05:48.425Z,8.00
2022-07-25T08:08:15.324Z,7.13
2022-07-25T08:10:43.843Z,7.00
2022-07-25T08:13:19.520Z,7.68
2022-07-25T08:15:48.505Z,6.72
2022-07-25T08:18:17.376Z,6.95
2022-07-25T08:20:45.720Z,6.28
2022-07-25T08:23:12.858Z,6.60
2022-07-25T08:25:40.033Z,6.97
2022-07-25T08:28:07.386Z,6.53
2022-07-25T08:30:35.751Z,6.72
2022-07-25T08:33:04.687Z,6.53
2022-07-25T08:35:32.624Z,6.90
2022-07-25T08:38:00.945Z,6.95
2022-07-25T08:40:29.658Z,6.75
2022-07-25T08:42:56.703Z,7.50
2022-07-25T08:45:23.460Z,6.70
2022-07-25T08:47:51.826Z,6.45
2022-07-25T08:50:38.678Z,6.43
2022-07-25T08:53:31.646Z,6.57
2022-07-25T08:55:53.002Z,6.78
2022-07-25T08:58:19.673Z,6.65
2022-07-25T09:00:46.791Z,6.38
2022-07-25T09:03:13.685Z,6.80
2022-07-25T09:05:40.886Z,7.18
2022-07-25T09:08:17.429Z,7.45
2022-07-25T09:10:50.066Z,7.20
2022-07-25T09:13:17.883Z,6.57
2022-07-25T09:15:51.377Z,6.68
2022-07-25T09:18:23.619Z,5.97
2022-07-25T09:21:01.564Z,6.20
2022-07-25T09:23:33.580Z,6.10
2022-07-25T09:26:04.022Z,6.85
2022-07-25T09:28:30.843Z,6.00
2022-07-25T09:30:59.903Z,6.22
2022-07-25T09:33:28.331Z,6.43
2022-07-25T09:35:56.020Z,6.07
2022-07-25T09:38:24.104Z,6.53
2022-07-25T09:40:58.568Z,6.30
2022-07-25T09:43:38.838Z,6.22
2022-07-25T09:46:07.009Z,6.15
2022-07-25T09:48:35.378Z,5.82
2022-07-25T09:51:03.026Z,6.05
2022-07-25T09:53:29.863Z,6.00
2022-07-25T09:55:57.537Z,6.18
2022-07-25T09:58:25.250Z,6.10
2022-07-25T10:00:56.340Z,6.03
2022-07-25T10:03:51.468Z,5.20
2022-07-25T10:06:28.797Z,5.15
2022-07-25T10:08:55.720Z,5.00
2022-07-25T10:11:27.825Z,5.05
2022-07-25T10:13:55.391Z,4.88
2022-07-25T10:16:24.357Z,5.40
2022-07-25T10:18:57.127Z,4.78
2022-07-25T10:21:27.666Z,5.05
2022-07-25T10:24:07.904Z,4.38
2022-07-25T10:26:40.089Z,4.65
2022-07-25T10:29:11.339Z,5.35
2022-07-25T10:31:49.342Z,4.95
2022-07-25T10:34:16.773Z,5.07
2022-07-25T10:36:48.333Z,5.05
2022-07-25T10:39:17.191Z,5.10
2022-07-25T10:41:55.756Z,5.03
2022-07-25T10:44:22.531Z,4.75
2022-07-25T10:46:50.286Z,4.63
2022-07-25T10:49:31.014Z,4.68
2022-07-25T10:52:00.736Z,4.60
2022-07-25T10:54:36.991Z,4.72
2022-07-25T10:57:05.956Z,4.60
2022-07-25T10:59:39.850Z,4.80
2022-07-25T11:02:09.626Z,4.88
2022-07-25T11:04:36.629Z,5.07
2022-07-25T11:07:14.461Z,5.18
2022-07-25T11:09:43.946Z,4.63
2022-07-25T11:12:15.526Z,4.40
2022-07-25T11:14:42.793Z,4.68
2022-07-25T11:17:15.785Z,4.75
2022-07-25T11:19:44.915Z,4.72
2022-07-25T11:22:12.250Z,4.65
2022-07-25T11:24:43.272Z,4.93
2022-07-25T11:27:12.553Z,4.80
2022-07-25T11:29:40.262Z,4.90
2022-07-25T11:32:10.474Z,5.28
2022-07-25T11:34:44.020Z,4.82
2022-07-25T11:37:12.489Z,5.18
2022-07-25T11:39:41.194Z,5.20
2022-07-25T11:42:10.665Z,5.03
2022-07-25T11:44:47.648Z,5.30
2022-07-25T11:47:32.281Z,5.05
2022-07-25T11:50:02.532Z,5.20
2022-07-25T11:52:32.013Z,5.20
2022-07-25T11:55:03.730Z,5.10
2022-07-25T11:57:32.625Z,4.93
2022-07-25T12:00:00.621Z,5.60
2022-07-25T12:02:33.346Z,5.07
2022-07-25T12:05:06.671Z,5.45
2022-07-25T12:07:45.240Z,5.20
2022-07-25T12:10:35.073Z,5.88
2022-07-25T12:13:04.005Z,5.72
2022-07-25T12:15:33.335Z,5.55
2022-07-25T12:18:01.873Z,5.45
2022-07-25T12:20:31.440Z,5.45
2022-07-25T12:23:08.939Z,5.32
2022-07-25T12:25:40.755Z,5.25
2022-07-25T12:28:08.668Z,5.38
2022-07-25T12:30:35.305Z,5.30
2022-07-25T12:33:02.275Z,5.28
2022-07-25T12:35:29.245Z,5.43
2022-07-25T12:37:55.936Z,4.97
2022-07-25T12:40:22.752Z,5.30
2022-07-25T12:42:49.873Z,4.90
2022-07-25T12:45:17.765Z,5.10
2022-07-25T12:47:46.046Z,5.60
2022-07-25T12:50:13.699Z,5.03
2022-07-25T12:52:41.296Z,5.22
2022-07-25T12:55:10.053Z,4.95
2022-07-25T12:57:37.312Z,5.15
2022-07-25T13:00:10.012Z,4.95
2022-07-25T13:02:37.212Z,5.13
2022-07-25T13:05:04.626Z,4.88
2022-07-25T13:07:32.255Z,5.03
2022-07-25T13:09:58.887Z,5.05
2022-07-25T13:12:25.442Z,5.10
2022-07-25T13:14:52.293Z,5.05
2022-07-25T13:17:21.381Z,5.22
2022-07-25T13:19:51.909Z,5.10
2022-07-25T13:22:18.511Z,5.28
2022-07-25T13:24:45.080Z,5.60
2022-07-25T13:27:11.725Z,5.00
2022-07-25T13:29:38.345Z,5.43
2022-07-25T13:32:05.419Z,5.22
2022-07-25T13:34:32.778Z,5.50
2022-07-25T13:36:59.605Z,5.30
2022-07-25T13:39:27.119Z,4.88
2022-07-25T13:41:53.797Z,5.15
2022-07-25T13:44:20.292Z,5.30
2022-07-25T13:46:49.930Z,5.07
2022-07-25T13:49:17.522Z,4.55
2022-07-25T13:51:45.531Z,4.10
2022-07-25T13:54:12.764Z,4.45
2022-07-25T13:56:40.524Z,4.82
2022-07-25T13:59:08.583Z,4.30
2022-07-25T14:01:35.773Z,4.00
2022-07-25T14:04:02.469Z,3.92
2022-07-25T14:06:29.102Z,3.80
2022-07-25T14:08:55.638Z,4.00
2022-07-25T14:11:24.874Z,3.85
2022-07-25T14:13:55.993Z,3.80
2022-07-25T14:16:22.579Z,3.58
2022-07-25T14:18:49.262Z,3.50
2022-07-25T14:21:16.272Z,3.38
2022-07-25T14:23:42.950Z,3.40
2022-07-25T14:26:09.601Z,2.95
2022-07-25T14:28:36.207Z,2.70
2022-07-25T14:31:02.853Z,3.20
2022-07-25T14:33:29.408Z,3.13
2022-07-25T14:35:56.370Z,3.00
2022-07-25T14:38:22.993Z,2.72
2022-07-25T14:40:49.704Z,2.60
2022-07-25T14:43:16.345Z,2.70
2022-07-25T14:45:43.058Z,2.65
2022-07-25T14:48:09.642Z,3.00
2022-07-25T14:50:36.236Z,2.47
2022-07-25T14:53:02.780Z,2.65
2022-07-25T14:55:29.366Z,2.80
2022-07-25T14:57:57.815Z,2.10
2022-07-25T15:00:29.169Z,2.60
2022-07-25T15:02:56.814Z,2.42
2022-07-25T15:05:23.340Z,2.30
2022-07-25T15:07:49.955Z,2.45
2022-07-25T15:10:17.166Z,1.95
2022-07-25T15:12:43.961Z,1.90
2022-07-25T15:15:11.426Z,2.00
2022-07-25T15:17:38.709Z,1.92
2022-07-25T15:20:05.888Z,1.92
2022-07-25T15:22:32.500Z,1.90
2022-07-25T15:25:27.555Z,1.75
2022-07-25T15:27:45.607Z,1.75
2022-07-25T15:30:12.859Z,1.90
2022-07-25T15:32:40.165Z,1.70
2022-07-25T15:35:07.395Z,1.60
2022-07-25T15:37:34.057Z,1.80
2022-07-25T15:40:00.741Z,1.77
2022-07-25T15:42:29.365Z,1.70
2022-07-25T15:45:29.821Z,1.55
2022-07-25T15:47:46.239Z,1.77
2022-07-25T15:50:18.065Z,1.73
2022-07-25T15:52:44.653Z,1.60
2022-07-25T15:55:11.265Z,1.50
2022-07-25T15:57:37.920Z,1.38
2022-07-25T16:00:07.512Z,1.70
2022-07-25T16:02:34.944Z,1.45
2022-07-25T16:05:03.099Z,1.48
2022-07-25T16:07:29.926Z,1.50
2022-07-25T16:09:57.141Z,1.65
2022-07-25T16:12:28.278Z,1.70
2022-07-25T16:14:55.831Z,1.65
2022-07-25T16:17:23.162Z,1.40
2022-07-25T16:19:50.013Z,1.65
2022-07-25T16:22:16.920Z,1.63
2022-07-25T16:24:43.662Z,1.70
2022-07-25T16:27:10.399Z,1.40
2022-07-25T16:29:37.610Z,1.45
2022-07-25T16:32:05.409Z,1.50
2022-07-25T16:34:32.787Z,1.55
2022-07-25T16:37:01.233Z,1.50
2022-07-25T16:39:28.075Z,1.55
2022-07-25T16:41:54.978Z,1.50
2022-07-25T16:44:23.699Z,1.52
2022-07-25T16:46:50.845Z,1.35
2022-07-25T16:49:17.684Z,1.60
2022-07-25T16:51:45.082Z,1.60
2022-07-25T16:54:12.338Z,1.65
2022-07-25T16:56:39.051Z,1.63
2022-07-25T16:59:06.528Z,1.58
2022-07-25T17:01:35.048Z,1.52
2022-07-25T17:04:02.049Z,1.73
2022-07-25T17:06:28.811Z,1.50
2022-07-25T17:08:55.629Z,1.38
2022-07-25T17:11:22.488Z,1.35
2022-07-25T17:13:49.058Z,1.75
2022-07-25T17:16:15.757Z,1.48
2022-07-25T17:18:42.429Z,1.70
2022-07-25T17:21:09.549Z,1.70
2022-07-25T17:23:36.256Z,1.48
2022-07-25T17:26:05.216Z,1.52
2022-07-25T17:28:32.126Z,1.58
2022-07-25T17:30:58.808Z,1.35
2022-07-25T17:33:25.440Z,1.63
2022-07-25T17:35:52.420Z,1.90
2022-07-25T17:38:23.737Z,1.50
2022-07-25T17:40:52.563Z,1.38
2022-07-25T17:43:19.637Z,1.52
2022-07-25T17:45:46.286Z,1.63
2022-07-25T17:48:12.867Z,1.38
2022-07-25T17:50:39.518Z,1.30
2022-07-25T17:53:06.084Z,1.33
2022-07-25T17:55:38.232Z,1.63
2022-07-25T17:58:05.576Z,1.30
2022-07-25T18:00:32.392Z,1.20
2022-07-25T18:02:59.357Z,1.05
2022-07-25T18:05:26.112Z,1.20
2022-07-25T18:07:53.533Z,1.00
2022-07-25T18:10:21.775Z,1.40
2022-07-25T18:12:48.745Z,1.47
2022-07-25T18:15:15.582Z,1.33
2022-07-25T18:17:44.209Z,1.17
2022-07-25T18:20:12.191Z,1.00
2022-07-25T18:22:41.079Z,0.90
2022-07-25T18:25:11.204Z,1.00
2022-07-25T18:27:41.314Z,1.10
2022-07-25T18:30:08.828Z,0.90
2022-07-25T18:32:35.795Z,0.70
2022-07-25T18:35:02.608Z,0.80
2022-07-25T18:37:29.221Z,0.80
2022-07-25T18:39:55.850Z,0.80
2022-07-25T18:42:26.323Z,1.07
2022-07-25T18:44:56.383Z,1.30
2022-07-25T18:47:25.509Z,1.10
2022-07-25T18:49:53.659Z,1.00
2022-07-25T18:52:21.567Z,1.00
2022-07-25T18:54:48.201Z,0.80
2022-07-25T18:57:15.343Z,0.87
2022-07-25T18:59:42.140Z,0.80
2022-07-25T19:02:08.951Z,0.80
2022-07-25T19:04:35.653Z,1.03
2022-07-25T19:07:02.497Z,0.90
2022-07-25T19:09:29.104Z,1.30
2022-07-25T19:11:56.597Z,1.10
2022-07-25T19:14:26.029Z,0.97
2022-07-25T19:16:53.801Z,0.90
2022-07-25T19:19:20.706Z,0.90
2022-07-25T19:21:47.507Z,1.20
2022-07-25T19:24:14.229Z,0.93
2022-07-25T19:26:41.420Z,0.93
2022-07-25T19:29:09.268Z,0.80
2022-07-25T19:31:38.106Z,0.90
2022-07-25T19:34:06.628Z,1.30
2022-07-25T19:36:33.622Z,0.80
2022-07-25T19:39:00.886Z,1.10
2022-07-25T19:41:28.384Z,0.70
2022-07-25T19:43:55.008Z,0.90
2022-07-25T19:46:22.133Z,1.20
2022-07-25T19:48:50.067Z,1.00
2022-07-25T19:51:16.788Z,1.30
2022-07-25T19:53:43.379Z,1.00
2022-07-25T19:56:09.938Z,1.20
2022-07-25T19:58:38.971Z,0.90
2022-07-25T20:01:07.954Z,1.23
2022-07-25T20:03:35.067Z,1.00
2022-07-25T20:06:07.520Z,0.93
2022-07-25T20:08:34.612Z,1.03
2022-07-25T20:11:01.343Z,1.07
2022-07-25T20:13:29.573Z,1.40
2022-07-25T20:15:56.519Z,0.90
2022-07-25T20:18:23.150Z,0.93
2022-07-25T20:20:49.756Z,1.30
2022-07-25T20:23:16.439Z,1.23
2022-07-25T20:25:43.036Z,1.00
2022-07-25T20:28:09.775Z,1.30
2022-07-25T20:30:36.616Z,1.43
2022-07-25T20:33:05.347Z,1.30
2022-07-25T20:35:36.149Z,1.27
2022-07-25T20:38:02.842Z,1.20
2022-07-25T20:40:36.196Z,1.20
2022-07-25T20:43:04.380Z,1.10
2022-07-25T20:45:30.990Z,1.10
2022-07-25T20:47:57.715Z,1.03
2022-07-25T20:50:24.397Z,1.40
2022-07-25T20:52:51.281Z,1.10
2022-07-25T20:55:17.854Z,1.23
2022-07-25T20:57:50.138Z,0.80
2022-07-25T21:00:17.198Z,1.00
2022-07-25T21:02:43.850Z,1.07
2022-07-25T21:05:10.635Z,0.87
2022-07-25T21:07:37.251Z,1.00
2022-07-25T21:10:04.594Z,1.10
2022-07-25T21:12:33.041Z,1.10
2022-07-25T21:15:01.248Z,1.00
2022-07-25T21:17:28.309Z,1.10
2022-07-25T21:19:55.026Z,1.10
2022-07-25T21:22:22.146Z,0.90
2022-07-25T21:24:49.628Z,1.00
2022-07-25T21:27:17.319Z,1.00
2022-07-25T21:29:44.498Z,0.93
2022-07-25T21:32:13.533Z,1.20
2022-07-25T21:34:41.009Z,1.00
2022-07-25T21:37:07.656Z,1.10
2022-07-25T21:39:34.248Z,0.90
2022-07-25T21:42:01.858Z,1.03
2022-07-25T21:44:28.560Z,1.00
2022-07-25T21:46:55.114Z,1.37
2022-07-25T21:49:42.030Z,1.00
2022-07-25T21:52:13.686Z,1.10
2022-07-25T21:54:44.939Z,1.30
2022-07-25T21:57:13.693Z,1.13
2022-07-25T21:59:44.572Z,1.40
2022-07-25T22:02:11.710Z,1.40
2022-07-25T22:04:38.657Z,1.10
2022-07-25T22:07:05.968Z,1.20
2022-07-25T22:09:32.598Z,1.43
2022-07-25T22:11:59.337Z,1.17
2022-07-25T22:14:26.000Z,1.30
2022-07-25T22:16:53.044Z,1.50
2022-07-25T22:19:22.356Z,1.63
2022-07-25T22:21:51.894Z,1.40
2022-07-25T22:24:18.478Z,1.17
2022-07-25T22:26:45.547Z,1.10
2022-07-25T22:29:12.495Z,1.17
2022-07-25T22:31:39.457Z,0.90
2022-07-25T22:34:06.647Z,1.07
2022-07-25T22:36:33.206Z,1.10
2022-07-25T22:38:59.821Z,0.90
2022-07-25T22:41:26.430Z,0.90
2022-07-25T22:43:58.756Z,0.77
2022-07-25T22:46:28.250Z,0.80
2022-07-25T22:48:55.453Z,0.80
2022-07-25T22:51:23.078Z,0.83
2022-07-25T22:53:49.665Z,0.90
2022-07-25T22:56:16.884Z,0.90
2022-07-25T22:58:43.730Z,0.83
2022-07-25T23:01:12.597Z,0.80
2022-07-25T23:03:39.219Z,0.73
2022-07-25T23:06:06.547Z,0.73
2022-07-25T23:08:33.337Z,0.93
2022-07-25T23:11:00.053Z,0.97
2022-07-25T23:13:26.581Z,1.00
2022-07-25T23:15:53.161Z,1.00
2022-07-25T23:18:19.831Z,0.90
2022-07-25T23:20:46.433Z,0.97
2022-07-25T23:23:13.615Z,0.70
2022-07-25T23:25:40.405Z,0.80
2022-07-25T23:28:06.912Z,0.80
2022-07-25T23:30:39.710Z,0.90
2022-07-25T23:33:07.477Z,0.93
2022-07-25T23:35:34.715Z,1.07
2022-07-25T23:38:01.382Z,1.10
2022-07-25T23:40:28.091Z,1.00
2022-07-25T23:42:54.971Z,1.10
2022-07-25T23:45:24.924Z,1.20
2022-07-25T23:47:54.767Z,1.10
2022-07-25T23:50:22.541Z,1.40
2022-07-25T23:52:49.200Z,1.23
2022-07-25T23:55:15.733Z,1.20
2022-07-25T23:57:43.057Z,1.30
